Time;durP1;ratioP1;P1;durP2;ratioP2;P2;SDS_P1;SDS_P2;PMS_P1;PMS_P2;Temp;Humidity;BMP_temperature;BMP_pressure;BME280_temperature;BME280_humidity;BME280_pressure;Samples;Min_cycle;Max_cycle;Signal;HPM_P1;HPM_P2
2022/08/28 00:02:21;;;;;;;12.33;4.35;;;;;;;20.77;59.84;99706.64;1716368;82;21578;-71
2022/08/28 00:04:48;;;;;;;12.00;4.20;;;;;;;20.75;60.00;99706.03;1707725;82;21763;-69
2022/08/28 00:07:15;;;;;;;10.48;3.85;;;;;;;20.73;60.23;99707.23;1708785;82;21118;-71
2022/08/28 00:09:43;;;;;;;12.33;3.92;;;;;;;20.71;60.35;99701.25;1704111;83;21115;-70
2022/08/28 00:12:11;;;;;;;13.03;4.35;;;;;;;20.69;60.69;99699.30;1712226;81;20981;-70
2022/08/28 00:14:38;;;;;;;13.78;4.35;;;;;;;20.68;60.93;99701.67;1719621;82;20988;-70
2022/08/28 00:17:04;;;;;;;11.65;4.05;;;;;;;20.67;60.98;99699.50;1720391;82;21905;-69
2022/08/28 00:19:31;;;;;;;10.10;4.17;;;;;;;20.69;61.05;99686.70;1705928;83;21485;-70
2022/08/28 00:21:57;;;;;;;14.07;4.35;;;;;;;20.71;61.34;99669.88;1712075;82;20975;-69
2022/08/28 00:24:24;;;;;;;13.58;4.00;;;;;;;20.69;61.46;99668.44;1699793;83;21036;-70
2022/08/28 00:29:37;;;;;;;14.13;4.33;;;;;;;20.63;61.77;99666.56;1720779;82;21431;-69
2022/08/28 00:32:05;;;;;;;10.08;4.30;;;;;;;20.64;61.84;99670.89;1702681;83;21086;-70
2022/08/28 00:34:32;;;;;;;15.10;4.53;;;;;;;20.66;61.93;99683.61;1719518;82;20984;-70
2022/08/28 00:36:59;;;;;;;11.00;3.98;;;;;;;20.71;61.91;99680.61;1730423;82;21024;-70
2022/08/28 00:39:25;;;;;;;12.70;4.17;;;;;;;20.75;61.94;99667.11;1736997;82;20940;-70
2022/08/28 00:41:52;;;;;;;14.83;4.50;;;;;;;20.80;62.23;99662.45;1728296;82;22275;-69
2022/08/28 00:44:21;;;;;;;11.60;4.30;;;;;;;20.81;62.50;99662.25;1710509;82;21045;-70
2022/08/28 00:46:50;;;;;;;10.93;4.55;;;;;;;20.81;62.80;99657.39;1731028;81;20992;-69
2022/08/28 00:49:22;;;;;;;11.03;4.40;;;;;;;20.81;63.06;99660.91;1698491;83;21150;-70
2022/08/28 00:52:07;;;;;;;14.33;4.20;;;;;;;20.83;63.15;99687.53;1694343;83;21533;-69
2022/08/28 00:54:41;;;;;;;11.20;4.10;;;;;;;20.88;63.76;99772.83;1709936;82;21906;-70
2022/08/28 00:57:10;;;;;;;19.12;4.87;;;;;;;20.84;63.46;99822.91;1733617;82;21008;-70
2022/08/28 00:59:37;;;;;;;23.67;6.20;;;;;;;20.80;61.97;99848.48;1731705;82;20989;-73
2022/08/28 01:13:23;;;;;;;19.32;6.15;;;;;;;20.52;66.05;99735.06;1838637;75;22618;-67
2022/08/28 01:15:50;;;;;;;18.70;5.58;;;;;;;20.40;66.49;99762.95;1805997;78;21568;-67
2022/08/28 01:18:18;;;;;;;17.95;5.85;;;;;;;20.26;66.88;99771.95;1813216;78;22775;-67
2022/08/28 01:20:56;;;;;;;14.20;5.72;;;;;;;20.16;67.32;99760.77;1831592;77;21500;-68
2022/08/28 01:23:45;;;;;;;17.55;5.80;;;;;;;20.10;68.26;99775.81;1798523;78;21423;-67
2022/08/28 01:26:12;;;;;;;18.90;5.70;;;;;;;19.94;69.14;99779.63;1815801;77;20939;-67
2022/08/28 01:28:39;;;;;;;16.48;6.03;;;;;;;19.80;70.03;99770.38;1840770;77;21031;-67
2022/08/28 01:31:11;;;;;;;14.95;5.35;;;;;;;19.73;70.64;99767.13;1810782;78;21950;-68
2022/08/28 01:33:38;;;;;;;20.25;5.78;;;;;;;19.67;71.14;99760.37;1768083;80;21004;-67
2022/08/28 01:36:06;;;;;;;14.78;5.40;;;;;;;19.64;71.60;99766.95;1827382;77;21062;-67
2022/08/28 01:38:33;;;;;;;17.10;5.60;;;;;;;19.64;71.82;99764.78;1834253;77;20980;-68
2022/08/28 01:40:59;;;;;;;14.05;5.35;;;;;;;19.64;72.06;99750.88;1786211;79;21080;-68
2022/08/28 01:43:26;;;;;;;15.23;5.45;;;;;;;19.57;72.48;99747.31;1811133;78;21768;-68
2022/08/28 01:46:00;;;;;;;15.28;5.58;;;;;;;19.48;72.89;99761.02;1804452;79;20910;-69
2022/08/28 01:48:25;;;;;;;14.03;5.80;;;;;;;19.41;73.37;99773.86;1819015;77;20992;-68
2022/08/28 01:50:52;;;;;;;16.10;5.25;;;;;;;19.43;73.70;99773.16;1822400;77;20971;-68
2022/08/28 01:53:22;;;;;;;16.05;6.10;;;;;;;19.49;73.86;99762.67;1795132;78;21043;-68
2022/08/28 01:55:49;;;;;;;14.38;5.85;;;;;;;19.54;74.12;99758.91;1836849;77;21755;-68
2022/08/28 01:58:16;;;;;;;23.65;5.60;;;;;;;19.56;74.54;99750.20;1836184;77;21435;-68
2022/08/28 02:00:42;;;;;;;16.50;5.75;;;;;;;19.55;74.96;99744.50;1823418;77;21415;-69
2022/08/28 02:03:09;;;;;;;14.00;5.75;;;;;;;19.53;75.28;99746.55;1802798;78;21036;-68
2022/08/28 02:05:37;;;;;;;18.67;6.15;;;;;;;19.52;75.73;99738.20;1773454;80;21449;-68
2022/08/28 02:08:05;;;;;;;12.88;5.33;;;;;;;19.54;76.12;99734.80;1809692;78;21794;-68
2022/08/28 02:10:34;;;;;;;13.22;5.05;;;;;;;19.56;76.45;99740.30;1808105;78;20925;-68
2022/08/28 02:13:01;;;;;;;11.68;5.08;;;;;;;19.59;76.65;99748.45;1802175;78;20952;-68
2022/08/28 02:15:30;;;;;;;11.68;4.87;;;;;;;19.63;76.71;99744.38;1790973;78;20996;-68
2022/08/28 02:17:56;;;;;;;16.45;5.20;;;;;;;19.65;76.76;99736.97;1814877;78;21485;-68
2022/08/28 02:20:23;;;;;;;10.88;4.87;;;;;;;19.66;76.51;99742.13;1803080;78;21527;-68
2022/08/28 02:22:50;;;;;;;11.45;4.53;;;;;;;19.69;76.36;99748.97;1774354;80;20987;-69
2022/08/28 02:25:17;;;;;;;11.68;4.72;;;;;;;19.73;76.22;99761.77;1759484;80;21492;-70
2022/08/28 02:27:44;;;;;;;15.78;4.47;;;;;;;19.76;76.10;99748.48;1798841;78;21070;-68
2022/08/28 02:30:12;;;;;;;16.80;4.95;;;;;;;19.76;76.01;99736.42;1802490;78;21433;-68
2022/08/28 02:32:39;;;;;;;11.93;4.85;;;;;;;19.73;75.92;99714.88;1781132;80;21909;-68
2022/08/28 02:35:07;;;;;;;11.03;5.00;;;;;;;19.74;75.93;99721.05;1793221;78;20983;-68
2022/08/28 02:37:34;;;;;;;15.25;4.80;;;;;;;19.71;75.79;99721.46;1795553;78;20923;-69
2022/08/28 02:40:01;;;;;;;15.88;5.12;;;;;;;19.66;75.55;99722.55;1800409;78;21301;-68
2022/08/28 02:42:28;;;;;;;12.53;5.10;;;;;;;19.60;75.42;99732.73;1813432;78;21000;-68
2022/08/28 02:44:54;;;;;;;12.47;4.70;;;;;;;19.56;75.42;99722.89;1767202;80;21925;-68
2022/08/28 02:47:22;;;;;;;12.13;5.10;;;;;;;19.56;75.30;99724.23;1803868;78;21065;-68
2022/08/28 02:49:49;;;;;;;11.43;5.20;;;;;;;19.53;75.19;99732.64;1801098;78;20956;-69
2022/08/28 02:52:15;;;;;;;10.43;5.40;;;;;;;19.52;75.24;99730.16;1798126;78;20983;-68
2022/08/28 02:54:42;;;;;;;11.93;5.20;;;;;;;19.49;75.35;99735.38;1793765;78;21078;-69
2022/08/28 02:57:08;;;;;;;10.55;4.60;;;;;;;19.48;75.29;99736.91;1801940;78;22021;-68
2022/08/28 02:59:35;;;;;;;13.03;5.03;;;;;;;19.52;75.21;99746.23;1804224;78;20960;-68
2022/08/28 03:02:02;;;;;;;11.45;4.53;;;;;;;19.54;75.19;99742.84;1793864;78;20916;-70
2022/08/28 03:04:33;;;;;;;11.57;4.92;;;;;;;19.53;75.10;99733.98;1796288;78;21474;-69
2022/08/28 03:06:59;;;;;;;11.55;5.12;;;;;;;19.51;75.12;99727.17;1807905;78;21035;-68
2022/08/28 03:09:26;;;;;;;11.88;4.83;;;;;;;19.49;75.06;99728.68;1768536;80;21965;-68
2022/08/28 03:11:53;;;;;;;12.60;5.05;;;;;;;19.51;75.07;99716.45;1808809;78;20967;-68
2022/08/28 03:14:20;;;;;;;10.90;4.65;;;;;;;19.51;75.00;99709.25;1808274;78;21007;-68
2022/08/28 03:16:48;;;;;;;16.23;5.85;;;;;;;19.53;75.06;99699.67;1808386;78;21033;-68
2022/08/28 03:19:15;;;;;;;11.73;4.85;;;;;;;19.52;75.01;99697.51;1795242;78;20944;-68
2022/08/28 03:21:41;;;;;;;10.18;4.87;;;;;;;19.52;75.04;99700.70;1806213;78;21791;-68
2022/08/28 03:24:08;;;;;;;11.95;5.00;;;;;;;19.44;75.12;99701.16;1775924;80;21027;-68
2022/08/28 03:26:34;;;;;;;10.95;5.10;;;;;;;19.40;75.32;99709.28;1812975;78;20951;-68
2022/08/28 03:29:01;;;;;;;14.90;4.97;;;;;;;19.38;75.50;99709.95;1786113;78;20950;-69
2022/08/28 03:31:28;;;;;;;12.43;5.33;;;;;;;19.39;75.60;99714.29;1809583;78;21039;-68
2022/08/28 03:33:56;;;;;;;9.43;4.70;;;;;;;19.37;75.64;99725.71;1794602;78;21902;-69
2022/08/28 03:36:25;;;;;;;11.40;5.08;;;;;;;19.36;75.75;99727.25;1792360;78;21050;-68
2022/08/28 03:38:53;;;;;;;13.75;4.67;;;;;;;19.37;75.94;99726.23;1794551;78;20931;-68
2022/08/28 03:41:22;;;;;;;11.12;5.60;;;;;;;19.39;76.11;99719.64;1799181;78;21019;-68
2022/08/28 03:43:48;;;;;;;13.45;4.90;;;;;;;19.40;76.25;99729.88;1779876;80;21008;-68
2022/08/28 03:46:19;;;;;;;11.18;5.20;;;;;;;19.42;76.31;99735.34;1763625;80;21848;-69
2022/08/28 03:48:45;;;;;;;8.60;4.83;;;;;;;19.46;76.35;99743.81;1807640;78;21511;-68
2022/08/28 03:51:16;;;;;;;9.28;4.83;;;;;;;19.50;76.28;99747.77;1778094;80;21094;-68
2022/08/28 03:53:43;;;;;;;10.35;4.62;;;;;;;19.56;76.30;99749.69;1775267;80;20964;-68
2022/08/28 03:56:12;;;;;;;14.95;5.20;;;;;;;19.58;76.31;99746.29;1804393;78;21412;-69
2022/08/28 03:58:41;;;;;;;11.83;4.92;;;;;;;19.60;76.17;99752.82;1790421;78;21831;-68
2022/08/28 04:01:07;;;;;;;9.03;5.10;;;;;;;19.60;76.14;99751.48;1752651;80;20992;-68
2022/08/28 04:03:34;;;;;;;9.95;4.53;;;;;;;19.60;76.15;99752.30;1790162;78;20995;-68
2022/08/28 04:06:01;;;;;;;10.35;5.12;;;;;;;19.61;76.16;99751.80;1784211;80;20969;-69
2022/08/28 04:08:28;;;;;;;13.40;5.20;;;;;;;19.59;76.16;99757.83;1801060;78;21046;-68
2022/08/28 04:10:54;;;;;;;9.20;4.80;;;;;;;19.59;76.08;99756.02;1809231;78;21905;-68
2022/08/28 04:13:21;;;;;;;11.70;4.62;;;;;;;19.61;75.98;99755.81;1804419;78;20963;-67
2022/08/28 04:15:58;;;;;;;8.78;4.50;;;;;;;19.59;76.04;99746.64;1771723;78;21056;-67
2022/08/28 04:18:26;;;;;;;10.78;4.50;;;;;;;19.59;76.06;99759.17;1787972;80;20960;-67
2022/08/28 04:21:04;;;;;;;10.48;4.55;;;;;;;19.59;75.99;99756.49;1794942;80;20944;-67
2022/08/28 04:23:31;;;;;;;9.85;4.20;;;;;;;19.59;75.89;99765.88;1771778;80;21878;-68
2022/08/28 04:25:57;;;;;;;11.38;4.40;;;;;;;19.63;75.76;99765.81;1800000;78;21034;-68
2022/08/28 04:28:24;;;;;;;10.80;4.67;;;;;;;19.61;75.64;99765.19;1807481;78;21439;-67
2022/08/28 04:30:55;;;;;;;11.48;4.67;;;;;;;19.61;75.61;99772.71;1793925;78;21022;-68
2022/08/28 04:33:23;;;;;;;11.28;4.75;;;;;;;19.63;75.57;99779.21;1788531;78;20975;-68
2022/08/28 04:35:50;;;;;;;19.40;14.07;;;;;;;19.67;75.49;99781.80;1788609;78;22722;-68
2022/08/28 04:38:19;;;;;;;21.93;13.93;;;;;;;19.73;75.39;99779.70;1803917;78;20967;-68
2022/08/28 04:40:45;;;;;;;82.17;73.45;;;;;;;19.78;75.28;99777.75;1798249;78;21069;-68
2022/08/28 04:43:12;;;;;;;19.60;12.28;;;;;;;19.81;75.08;99788.92;1806473;78;20951;-67
2022/08/28 04:45:43;;;;;;;13.93;5.75;;;;;;;19.85;75.00;99784.82;1795335;78;20994;-68
2022/08/28 04:48:11;;;;;;;11.75;6.78;;;;;;;19.89;74.98;99790.64;1798791;78;21877;-68
2022/08/28 04:50:44;;;;;;;12.15;5.75;;;;;;;19.93;74.90;99795.39;1788149;78;20979;-68
2022/08/28 04:53:10;;;;;;;14.15;4.75;;;;;;;19.98;75.00;99797.50;1806400;78;20995;-67
2022/08/28 04:55:42;;;;;;;8.58;4.70;;;;;;;20.01;75.01;99791.73;1800345;78;21035;-69
2022/08/28 04:58:09;;;;;;;9.20;4.55;;;;;;;20.03;75.07;99796.89;1798797;78;21018;-68
2022/08/28 05:00:41;;;;;;;8.00;5.10;;;;;;;20.06;75.06;99801.34;1796574;78;21957;-68
2022/08/28 05:03:10;;;;;;;10.15;4.60;;;;;;;20.09;75.07;99806.84;1800021;78;20976;-69
2022/08/28 05:05:47;;;;;;;13.72;5.08;;;;;;;20.12;75.02;99808.61;1792085;78;20986;-68
2022/08/28 05:08:16;;;;;;;9.85;4.85;;;;;;;20.16;75.10;99813.05;1791055;78;21011;-68
2022/08/28 05:10:42;;;;;;;10.55;5.12;;;;;;;20.18;75.18;99803.80;1790384;78;20995;-68
2022/08/28 05:13:10;;;;;;;10.08;4.70;;;;;;;20.21;75.19;99808.77;1805733;79;21872;-68
2022/08/28 05:15:43;;;;;;;10.20;5.30;;;;;;;20.22;75.13;99804.22;1792995;79;21441;-68
2022/08/28 05:18:13;;;;;;;11.43;5.08;;;;;;;20.24;75.08;99810.21;1787126;78;21527;-67
2022/08/28 05:20:43;;;;;;;9.40;5.20;;;;;;;20.27;75.06;99804.47;1793184;79;20967;-67
2022/08/28 05:23:10;;;;;;;11.15;4.97;;;;;;;20.29;74.91;99795.70;1791974;79;20979;-68
2022/08/28 05:25:39;;;;;;;9.75;4.62;;;;;;;20.31;74.92;99797.67;1813047;79;21872;-68
2022/08/28 05:28:06;;;;;;;12.40;5.00;;;;;;;20.29;75.04;99795.70;1771387;80;21549;-67
2022/08/28 05:30:33;;;;;;;10.48;5.47;;;;;;;20.27;75.04;99799.94;1794931;79;20921;-68
2022/08/28 05:33:00;;;;;;;9.15;4.87;;;;;;;20.30;75.07;99782.09;1756466;81;21007;-68
2022/08/28 05:35:27;;;;;;;11.63;4.80;;;;;;;20.28;74.60;99774.77;1737796;81;21062;-68
2022/08/28 05:37:53;;;;;;;12.35;5.22;;;;;;;20.28;74.40;99768.58;1794091;79;22445;-69
2022/08/28 05:40:25;;;;;;;14.93;4.50;;;;;;;20.31;74.26;99770.85;1789522;80;21006;-68
2022/08/28 05:42:50;;;;;;;11.35;4.97;;;;;;;20.29;73.90;99776.94;1798349;79;20995;-68
2022/08/28 05:45:17;;;;;;;10.85;4.70;;;;;;;20.30;73.79;99779.41;1796635;79;21089;-68
2022/08/28 05:47:44;;;;;;;11.85;4.95;;;;;;;20.35;73.66;99790.88;1796371;79;20978;-68
2022/08/28 05:50:14;;;;;;;9.63;5.10;;;;;;;20.42;73.55;99791.73;1791818;79;21932;-67
2022/08/28 05:52:42;;;;;;;10.93;4.83;;;;;;;20.50;73.50;99788.09;1809109;78;21039;-67
2022/08/28 05:55:10;;;;;;;10.98;4.97;;;;;;;20.55;73.41;99785.10;1784184;79;21003;-68
2022/08/28 05:57:39;;;;;;;13.03;5.72;;;;;;;20.61;73.18;99779.98;1799377;78;21031;-68
2022/08/28 06:00:11;;;;;;;14.58;6.47;;;;;;;20.61;72.98;99779.46;1742792;81;20997;-68
2022/08/28 06:02:36;;;;;;;14.63;8.33;;;;;;;20.64;73.16;99776.36;1756445;79;21826;-69
2022/08/28 06:05:03;;;;;;;33.53;25.02;;;;;;;20.72;73.20;99778.88;1748701;81;20939;-68
2022/08/28 06:07:32;;;;;;;179.85;161.37;;;;;;;20.78;72.63;99774.05;1798776;79;20979;-69
2022/08/28 06:09:58;;;;;;;18.70;14.73;;;;;;;20.85;72.52;99773.56;1797153;79;21027;-68
2022/08/28 06:12:26;;;;;;;33.58;23.55;;;;;;;20.92;72.42;99779.44;1811255;79;21555;-68
2022/08/28 06:14:53;;;;;;;14.98;11.78;;;;;;;20.95;72.20;99775.85;1800098;78;22394;-69
2022/08/28 06:17:21;;;;;;;12.78;6.42;;;;;;;20.98;72.08;99774.09;1807636;78;21018;-68
2022/08/28 06:19:47;;;;;;;12.82;5.92;;;;;;;21.04;71.90;99774.63;1804113;78;21046;-68
2022/08/28 06:22:14;;;;;;;11.90;5.45;;;;;;;21.09;71.80;99772.14;1817181;78;20931;-69
2022/08/28 06:24:41;;;;;;;10.08;5.00;;;;;;;21.16;71.70;99776.19;1795514;78;21449;-68
2022/08/28 06:27:07;;;;;;;13.80;4.97;;;;;;;21.19;71.52;99782.48;1807417;78;21921;-68
2022/08/28 06:29:34;;;;;;;14.33;5.03;;;;;;;21.23;71.29;99775.69;1788458;78;21434;-68
2022/08/28 06:32:03;;;;;;;9.85;4.83;;;;;;;21.28;70.79;99770.54;1748456;80;20988;-70
2022/08/28 06:34:30;;;;;;;12.20;4.78;;;;;;;21.28;70.25;99760.31;1782548;79;21001;-70
2022/08/28 06:36:56;;;;;;;11.10;4.80;;;;;;;21.28;69.84;99763.00;1749240;80;21096;-68
2022/08/28 06:39:23;;;;;;;11.53;4.67;;;;;;;21.27;69.70;99761.35;1783709;78;21939;-68
2022/08/28 06:41:49;;;;;;;8.70;4.62;;;;;;;21.33;69.53;99757.85;1800070;78;20947;-68
2022/08/28 06:44:18;;;;;;;11.55;4.85;;;;;;;21.37;68.69;99761.25;1773629;80;21145;-70
2022/08/28 06:46:50;;;;;;;11.53;4.62;;;;;;;21.38;68.14;99759.38;1798936;78;20989;-68
2022/08/28 06:49:17;;;;;;;10.82;4.15;;;;;;;21.42;68.01;99759.27;1774428;80;21075;-70
2022/08/28 06:51:43;;;;;;;9.98;4.75;;;;;;;21.52;67.70;99754.33;1732853;81;22426;-68
2022/08/28 06:54:10;;;;;;;10.53;4.10;;;;;;;21.63;67.38;99752.88;1762405;80;20940;-69
2022/08/28 06:56:37;;;;;;;35.20;29.52;;;;;;;21.75;66.89;99755.74;1768191;80;21021;-68
2022/08/28 06:59:03;;;;;;;143.82;129.72;;;;;;;21.83;66.81;99764.41;1760881;80;20988;-71
2022/08/28 07:01:34;;;;;;;23.75;18.67;;;;;;;21.94;66.65;99768.32;1790823;78;20923;-69
2022/08/28 07:04:08;;;;;;;10.58;7.35;;;;;;;22.07;66.62;99771.52;1790292;78;21792;-70
2022/08/28 07:06:38;;;;;;;10.95;5.20;;;;;;;22.17;66.22;99776.76;1738003;81;21083;-69
2022/08/28 07:09:06;;;;;;;21.15;13.78;;;;;;;22.20;65.71;99762.91;1773385;80;20967;-70
2022/08/28 07:11:33;;;;;;;13.25;8.95;;;;;;;22.16;65.67;99770.25;1802949;79;21529;-69
2022/08/28 07:14:01;;;;;;;10.00;5.00;;;;;;;22.23;65.86;99777.27;1800723;77;20974;-69
2022/08/28 07:16:31;;;;;;;10.75;4.40;;;;;;;22.31;65.39;99778.08;1789290;78;22445;-68
2022/08/28 07:18:58;;;;;;;10.90;4.42;;;;;;;22.37;65.31;99783.41;1786275;78;22233;-71
2022/08/28 07:21:25;;;;;;;15.28;4.20;;;;;;;22.46;65.33;99783.48;1788148;78;21003;-69
2022/08/28 07:23:52;;;;;;;13.88;4.30;;;;;;;22.60;65.32;99787.48;1791494;78;20991;-68
2022/08/28 07:26:22;;;;;;;11.57;4.45;;;;;;;22.74;65.10;99780.45;1743296;80;20996;-69
2022/08/28 07:28:50;;;;;;;13.18;4.37;;;;;;;22.91;64.74;99773.27;1794293;78;22610;-69
2022/08/28 07:31:19;;;;;;;11.12;4.40;;;;;;;23.17;63.68;99781.70;1785369;78;21054;-69
2022/08/28 07:33:46;;;;;;;9.38;4.15;;;;;;;23.21;63.11;99783.72;1792549;78;21025;-68
2022/08/28 07:36:16;;;;;;;10.50;4.17;;;;;;;23.29;63.54;99778.59;1807701;78;21062;-68
2022/08/28 07:38:43;;;;;;;13.53;4.10;;;;;;;23.41;63.28;99778.18;1773823;78;20932;-68
2022/08/28 07:41:15;;;;;;;8.50;3.77;;;;;;;23.50;62.70;99774.69;1795391;78;22987;-69
2022/08/28 07:46:27;;;;;;;10.93;5.00;;;;;;;23.51;62.24;99784.42;1808912;78;21031;-69
2022/08/28 07:48:54;;;;;;;11.48;4.47;;;;;;;23.56;62.22;99783.25;1779623;80;20949;-69
2022/08/28 07:51:20;;;;;;;8.60;4.08;;;;;;;23.70;62.85;99786.98;1794878;78;21394;-70
2022/08/28 07:53:47;;;;;;;23.42;16.95;;;;;;;23.83;61.95;99786.02;1811145;78;21924;-68
2022/08/28 07:56:13;;;;;;;11.83;5.67;;;;;;;23.78;62.36;99779.13;1785926;80;20996;-69
2022/08/28 07:58:40;;;;;;;11.00;4.65;;;;;;;24.00;61.41;99772.78;1790919;78;21010;-69
2022/08/28 08:01:06;;;;;;;12.78;4.10;;;;;;;24.11;61.29;99778.78;1811011;78;21067;-69
2022/08/28 08:03:33;;;;;;;10.75;4.03;;;;;;;24.24;61.21;99775.13;1748304;80;21070;-68
2022/08/28 08:06:02;;;;;;;10.38;4.05;;;;;;;24.37;60.90;99765.55;1793642;78;21908;-68
2022/08/28 08:08:30;;;;;;;10.80;4.20;;;;;;;24.46;60.30;99765.53;1785753;78;21014;-69
2022/08/28 08:11:04;;;;;;;15.25;4.30;;;;;;;24.51;60.49;99761.64;1752675;80;21040;-69
2022/08/28 08:13:31;;;;;;;10.68;4.37;;;;;;;24.60;60.05;99765.35;1775238;80;21070;-69
2022/08/28 08:16:06;;;;;;;12.05;4.47;;;;;;;24.66;59.79;99767.97;1736601;81;21486;-68
2022/08/28 08:18:32;;;;;;;10.00;4.25;;;;;;;24.70;59.14;99766.45;1759928;80;21738;-69
2022/08/28 08:21:00;;;;;;;11.20;4.17;;;;;;;24.77;59.12;99767.72;1775485;80;21007;-68
2022/08/28 08:23:27;;;;;;;10.03;4.05;;;;;;;24.91;59.39;99766.50;1751732;81;21043;-68
2022/08/28 08:25:59;;;;;;;12.43;4.53;;;;;;;25.07;59.08;99760.44;1746780;80;21031;-69
2022/08/28 08:28:27;;;;;;;10.00;4.20;;;;;;;25.21;59.02;99761.08;1767226;80;26919;-70
2022/08/28 08:31:20;;;;;;;14.63;4.85;;;;;;;25.28;57.42;99756.89;1764657;80;21513;-68
2022/08/28 08:33:50;;;;;;;12.10;4.15;;;;;;;25.24;57.48;99761.13;1774777;80;21047;-69
2022/08/28 08:36:19;;;;;;;10.32;3.80;;;;;;;25.18;56.76;99758.82;1764455;80;21139;-70
2022/08/28 08:38:45;;;;;;;10.93;4.30;;;;;;;25.14;56.83;99761.70;1818888;78;21022;-68
2022/08/28 08:41:32;;;;;;;8.93;4.22;;;;;;;25.20;56.76;99764.02;1799105;78;20999;-69
2022/08/28 08:44:14;;;;;;;10.95;4.10;;;;;;;25.22;57.02;99764.61;1797788;78;22546;-68
2022/08/28 08:47:22;;;;;;;12.30;4.80;;;;;;;25.24;56.78;99763.30;1808979;78;21050;-69
2022/08/28 08:50:00;;;;;;;13.32;4.40;;;;;;;25.30;56.65;99765.63;1748577;81;21076;-67
2022/08/28 08:52:35;;;;;;;12.85;4.85;;;;;;;25.41;56.41;99766.16;1742531;82;21107;-68
2022/08/28 08:55:22;;;;;;;12.25;4.75;;;;;;;25.54;55.94;99763.22;1720209;82;21109;-68
2022/08/28 08:57:54;;;;;;;15.15;5.30;;;;;;;25.58;55.04;99758.19;1800847;77;21829;-69
2022/08/28 09:00:21;;;;;;;10.55;4.30;;;;;;;25.61;55.32;99758.53;1788625;78;21500;-68
2022/08/28 09:03:07;;;;;;;15.15;4.83;;;;;;;25.74;55.35;99766.14;1812318;78;21053;-67
2022/08/28 09:05:59;;;;;;;16.17;5.00;;;;;;;25.80;54.95;99761.97;1813555;78;21430;-68
2022/08/28 09:08:44;;;;;;;15.28;5.15;;;;;;;25.84;54.71;99768.55;1791762;78;21548;-67
2022/08/28 09:11:20;;;;;;;10.78;4.80;;;;;;;25.91;54.04;99767.90;1766810;80;21831;-70
2022/08/28 09:13:56;;;;;;;10.85;4.40;;;;;;;25.97;54.38;99762.08;1770416;78;21070;-68
2022/08/28 09:16:39;;;;;;;14.18;5.25;;;;;;;26.13;55.22;99761.33;1779544;78;21015;-69
2022/08/28 09:19:08;;;;;;;13.10;4.45;;;;;;;26.37;54.77;99762.64;1812557;78;20999;-68
2022/08/28 09:21:40;;;;;;;13.10;4.60;;;;;;;26.47;53.95;99769.12;1787682;78;21258;-69
2022/08/28 09:24:10;;;;;;;9.20;4.65;;;;;;;26.56;53.54;99766.03;1819159;77;21962;-69
2022/08/28 09:26:38;;;;;;;12.33;5.03;;;;;;;26.61;53.07;99764.77;1807545;78;21038;-68
2022/08/28 09:29:16;;;;;;;18.32;4.90;;;;;;;26.71;53.43;99760.89;1814077;79;21553;-69
2022/08/28 09:31:43;;;;;;;9.33;4.12;;;;;;;26.79;52.51;99757.27;1802312;78;21374;-68
2022/08/28 09:34:31;;;;;;;13.90;4.87;;;;;;;26.87;51.83;99757.95;1796483;78;22202;-68
2022/08/28 09:36:59;;;;;;;14.63;4.55;;;;;;;26.89;51.76;99758.52;1803851;78;21815;-69
2022/08/28 09:39:30;;;;;;;11.00;4.47;;;;;;;27.01;52.44;99756.02;1803421;78;21117;-69
2022/08/28 09:45:15;;;;;;;12.40;4.35;;;;;;;27.42;51.91;99750.52;1802620;78;20995;-72
2022/08/28 09:47:53;;;;;;;12.25;4.47;;;;;;;27.68;52.20;99751.20;1794474;78;20997;-68
2022/08/28 09:50:30;;;;;;;10.15;4.35;;;;;;;27.94;52.70;99744.25;1760175;81;21782;-69
2022/08/28 09:53:11;;;;;;;10.65;4.83;;;;;;;28.18;52.13;99744.81;1760368;81;21023;-68
2022/08/28 09:55:56;;;;;;;10.08;4.08;;;;;;;28.39;51.41;99749.48;1758456;81;21397;-69
2022/08/28 09:58:27;;;;;;;9.43;4.35;;;;;;;28.50;51.26;99744.98;1798093;79;20960;-68
2022/08/28 10:01:02;;;;;;;11.85;4.72;;;;;;;28.70;50.76;99745.73;1816575;77;20978;-68
2022/08/28 10:03:34;;;;;;;13.18;4.90;;;;;;;28.82;50.34;99743.67;1790243;78;21956;-68
2022/08/28 10:06:27;;;;;;;12.82;5.15;;;;;;;29.02;49.95;99738.46;1812517;78;20972;-68
2022/08/28 10:09:15;;;;;;;15.80;5.10;;;;;;;29.16;49.18;99729.35;1820334;77;20955;-68
2022/08/28 10:11:58;;;;;;;12.63;4.60;;;;;;;29.27;48.60;99735.69;1823034;78;20950;-68
2022/08/28 10:15:03;;;;;;;12.27;4.10;;;;;;;29.41;47.26;99743.67;1824356;77;21026;-68
2022/08/28 10:17:38;;;;;;;8.55;3.60;;;;;;;29.50;47.68;99742.69;1821225;78;21777;-69
2022/08/28 10:20:37;;;;;;;14.28;4.42;;;;;;;29.58;48.21;99741.66;1820270;78;20983;-69
2022/08/28 10:23:49;;;;;;;11.28;3.67;;;;;;;29.77;47.52;99737.15;1798170;78;21401;-69
2022/08/28 10:26:30;;;;;;;8.03;3.37;;;;;;;29.68;46.19;99738.19;1803172;77;21405;-69
2022/08/28 10:29:14;;;;;;;10.03;3.85;;;;;;;29.40;47.05;99748.02;1762553;81;20946;-69
2022/08/28 10:31:46;;;;;;;10.43;3.72;;;;;;;29.44;46.67;99745.89;1787825;78;22400;-69
2022/08/28 10:34:30;;;;;;;14.07;3.95;;;;;;;29.57;46.42;99742.74;1820057;78;21069;-68
2022/08/28 10:37:17;;;;;;;8.53;3.40;;;;;;;29.76;46.49;99749.94;1821655;78;21077;-68
2022/08/28 10:39:52;;;;;;;10.68;4.37;;;;;;;29.86;45.63;99756.80;1768364;78;20931;-68
2022/08/28 10:42:35;;;;;;;11.22;3.85;;;;;;;29.97;45.43;99757.68;1816974;78;21045;-70
2022/08/28 10:45:15;;;;;;;11.25;3.95;;;;;;;30.14;44.12;99750.72;1814962;78;21723;-68
2022/08/28 10:47:47;;;;;;;12.07;3.65;;;;;;;30.12;44.08;99755.63;1796091;80;20960;-68
2022/08/28 10:50:28;;;;;;;10.58;3.80;;;;;;;30.20;44.02;99764.63;1796496;80;20983;-68
2022/08/28 10:53:02;;;;;;;9.80;3.50;;;;;;;30.36;44.23;99766.33;1792592;80;21363;-68
2022/08/28 10:55:40;;;;;;;11.35;3.60;;;;;;;30.56;43.03;99771.03;1822798;78;20988;-68
2022/08/28 10:58:08;;;;;;;11.55;3.65;;;;;;;30.73;44.02;99764.03;1801275;78;21943;-68
2022/08/28 11:00:35;;;;;;;10.70;3.60;;;;;;;30.94;42.85;99766.25;1798975;78;21467;-68
2022/08/28 11:03:11;;;;;;;9.93;3.52;;;;;;;31.06;41.80;99772.25;1795000;78;21453;-68
2022/08/28 11:05:43;;;;;;;10.15;3.30;;;;;;;31.16;41.89;99766.80;1775839;78;20999;-68
2022/08/28 11:08:21;;;;;;;18.42;3.92;;;;;;;31.27;41.73;99772.59;1820559;78;21038;-68
2022/08/28 11:10:50;;;;;;;11.00;3.45;;;;;;;31.44;41.64;99772.84;1820941;78;21845;-68
2022/08/28 11:13:52;;;;;;;9.55;3.55;;;;;;;31.34;39.53;99769.57;1815429;78;21265;-68
2022/08/28 11:16:31;;;;;;;10.20;3.75;;;;;;;31.05;40.29;99765.16;1805699;78;21018;-69
2022/08/28 11:19:16;;;;;;;8.83;3.45;;;;;;;31.15;41.05;99761.62;1802862;78;21496;-69
2022/08/28 11:22:00;;;;;;;10.18;3.20;;;;;;;31.23;40.23;99766.03;1815691;78;21325;-72
2022/08/28 11:24:56;;;;;;;8.43;3.20;;;;;;;31.25;38.37;99765.20;1799880;78;21912;-70
2022/08/28 11:27:29;;;;;;;7.47;3.12;;;;;;;31.26;38.06;99763.29;1792927;78;21054;-71
2022/08/28 11:30:11;;;;;;;11.93;3.08;;;;;;;31.37;38.31;99758.68;1792840;78;21031;-72
2022/08/28 11:32:53;;;;;;;9.95;3.37;;;;;;;31.39;38.19;99762.77;1790992;80;20998;-71
2022/08/28 11:35:45;;;;;;;9.13;3.17;;;;;;;31.32;37.82;99764.94;1765548;80;21046;-72
2022/08/28 11:38:38;;;;;;;10.10;3.70;;;;;;;31.45;37.47;99760.28;1761469;81;21810;-71
2022/08/28 11:41:21;;;;;;;7.95;3.35;;;;;;;31.72;37.89;99760.53;1741257;80;21018;-70
2022/08/28 11:44:11;;;;;;;8.50;3.17;;;;;;;31.98;37.22;99760.77;1783790;80;21598;-71
2022/08/28 11:46:49;;;;;;;6.92;3.27;;;;;;;32.12;35.46;99759.08;1774169;79;21010;-70
2022/08/28 11:49:38;;;;;;;7.20;3.15;;;;;;;32.29;34.63;99764.21;1765521;79;21023;-70
2022/08/28 11:52:43;;;;;;;13.65;3.20;;;;;;;32.32;35.53;99756.02;1795296;79;21846;-68
2022/08/28 11:55:28;;;;;;;10.18;3.25;;;;;;;32.31;35.10;99756.58;1793654;78;21006;-69
2022/08/28 11:58:21;;;;;;;9.83;3.50;;;;;;;32.32;36.00;99758.20;1790808;79;21042;-69
2022/08/28 12:01:10;;;;;;;8.90;3.30;;;;;;;32.49;35.94;99761.96;1768534;81;20998;-69
2022/08/28 12:03:45;;;;;;;10.43;3.10;;;;;;;32.54;34.12;99764.68;1738195;81;21557;-69
2022/08/28 12:06:12;;;;;;;12.63;3.50;;;;;;;32.48;34.28;99763.06;1769031;79;21834;-68
2022/08/28 12:09:00;;;;;;;7.62;3.37;;;;;;;32.41;34.59;99763.36;1767250;81;22187;-68